Long Beach, CA

2:43 PM PDT on October 20, 2014 (GMT -0700)
Goodyear Blimp Base | Change Station
CLOSE
Current Station
Personal Weather Station
Location: Gardena, CA
Elevation: 65 ft
Nearby Weather Stations

Elev 65 ft 33.86 °N, 118.28 °W | Updated 16 seconds ago

Clear
Clear
75.2 °F
Feels Like 78 °F
N
9.0
Wind Variable Wind from WSW
Gusts 11.0 mph

Today
High -- | Low -- °F
--% Chance of Precip.
Yesterday
High -- | Low -- °F
Precip. -- in
7:02 AM 6:13 PM
Waning Crescent, 9% visible
Pressure 29.89 in
Visibility 10.0 miles
Clouds Few 2600 ft
Heat Index 78 °F
Dew Point 55 °F
Humidity 49%
Rainfall 0.00 in
Snow Depth Not available.
UV 1.9 out of 12
Pollen 3.50 out of 12
Ozone Good
Flu Activity Sporadic
METAR KLGB 202053Z 18006KT 10SM FEW026 23/17 A2989 RMK AO2 SLP122 T02280167 58019

More Conditions Fewer Conditions

Pressure 29.89 in
Visibility 10.0 miles
Clouds Few 2600 ft
Heat Index 78 °F
Dew Point 55 °F
Humidity 49%
Rainfall 0.00 in
Snow Depth Not available.
UV 1.9 out of 12
Pollen 3.50 out of 12
Ozone Good
Flu Activity Sporadic
METAR KLGB 202053Z 18006KT 10SM FEW026 23/17 A2989 RMK AO2 SLP122 T02280167 58019

More Conditions Fewer Conditions

10-Day Weather Forecast

Almanac

Astronomy

Oct. 20, 2014 Rise Set
Actual Time 7:02 AM PDT 6:13 PM PDT
Civil Twilight 6:36 AM PDT 6:38 PM PDT
Nautical Twilight 6:07 AM PDT 7:07 PM PDT
Astronomical Twilight 5:38 AM PDT 7:36 PM PDT
Moon 4:03 AM PDT 4:31 PM PDT
Length of Visible Light 12h 01m
Length of Day
11h 10m
Waning Crescent, 9% of the Moon is Illuminated
Today
Waning Crescent
Oct 23
New
Oct 30
First Quarter
Nov 6
Full
Nov 14
Last Quarter

Today's Extremes

State Highs State Lows

Community

WunderPhotos

Upload Photos

1,763,527 photos uploaded!

WunderBlogs® & News

Nearby

Air Quality

  Air Quality AQ Index Pollutant
Yesterday Good
OZONE
Current Good
OZONE
Tuesday Good
PM10
Tuesday Good
OZONE
Tuesday Good
CO
Tuesday Good
NO2

Snow Depth

Station Depth Elevation
Sonora Pass 0 in 8800 ft
Leavitt Meadows 0 in 7200 ft
Summit Meadow 0 in 9122 ft
Blue Lakes 0 in 8000 ft
Monitor Pass 0 in 8350 ft

Earthquake Activity

City Distance Mag. Time & Date
Fort Irwin, California 129 miles 3.1 6:03 AM PDT
2014-10-17
Minimum magnitude displayed is 2.5.

Coastal Water Temperatures

Place Temperature
Santa Monica Pier 71.1 °F
Los Angeles, CA 70.0 °F
La Jolla, CA 71.1 °F

Nearby Weather Stations